Time;durP1;ratioP1;P1;durP2;ratioP2;P2;SDS_P1;SDS_P2;PMS_P1;PMS_P2;Temp;Humidity;BMP_temperature;BMP_pressure;BME280_temperature;BME280_humidity;BME280_pressure;Samples;Min_cycle;Max_cycle;Signal;HPM_P1;HPM_P2
2022/02/17 00:02:25;;;;;;;1.38;0.20;;;12.30;99.90;;;;;;5053090;28;20035;-73
2022/02/17 00:04:52;;;;;;;0.08;0.00;;;12.40;99.90;;;;;;5055140;28;20032;-73
2022/02/17 00:07:17;;;;;;;0.00;0.00;;;12.40;99.90;;;;;;5053741;28;20132;-73
2022/02/17 00:09:43;;;;;;;0.08;0.08;;;12.40;99.90;;;;;;5055037;28;20083;-73
2022/02/17 00:12:09;;;;;;;0.10;0.05;;;12.60;99.90;;;;;;5053678;28;20056;-73
2022/02/17 00:14:35;;;;;;;0.00;0.00;;;12.60;99.90;;;;;;5054954;28;20037;-73
2022/02/17 00:17:00;;;;;;;0.10;0.10;;;12.60;99.90;;;;;;5054151;28;20036;-74
2022/02/17 00:19:26;;;;;;;0.88;0.10;;;12.70;99.90;;;;;;5053907;28;20168;-74
2022/02/17 00:21:52;;;;;;;0.10;0.10;;;12.70;99.90;;;;;;5054420;28;20072;-74
2022/02/17 00:24:18;;;;;;;0.03;0.03;;;12.70;99.90;;;;;;5054123;28;20040;-73
2022/02/17 00:26:44;;;;;;;0.05;0.05;;;12.70;99.90;;;;;;5054223;28;20029;-73
2022/02/17 00:29:10;;;;;;;0.95;0.20;;;12.80;99.90;;;;;;5054026;28;20028;-74
2022/02/17 00:31:37;;;;;;;0.03;0.00;;;12.80;99.90;;;;;;5053148;28;20426;-74
2022/02/17 00:34:02;;;;;;;0.80;0.10;;;12.90;99.90;;;;;;5054163;28;20112;-73
2022/02/17 00:36:28;;;;;;;0.10;0.10;;;12.90;99.90;;;;;;5052875;28;20496;-72
2022/02/17 00:38:54;;;;;;;0.00;0.00;;;13.00;99.90;;;;;;5053847;28;20040;-72
2022/02/17 00:41:20;;;;;;;0.35;0.10;;;13.00;99.90;;;;;;5053686;28;20025;-72
2022/02/17 00:43:47;;;;;;;0.10;0.10;;;13.00;99.90;;;;;;5053830;28;20375;-72
2022/02/17 00:46:12;;;;;;;0.10;0.00;;;13.00;99.90;;;;;;5053428;28;20031;-72
2022/02/17 00:48:38;;;;;;;0.10;0.10;;;13.00;99.90;;;;;;5054318;28;20029;-73
2022/02/17 00:51:04;;;;;;;1.85;0.10;;;12.90;99.90;;;;;;5052914;28;20037;-72
2022/02/17 00:53:30;;;;;;;0.00;0.00;;;13.00;99.90;;;;;;5053113;28;20036;-72
2022/02/17 00:55:55;;;;;;;0.00;0.00;;;13.00;99.90;;;;;;5053695;28;20025;-72
2022/02/17 00:58:21;;;;;;;0.00;0.00;;;13.00;99.90;;;;;;5052993;28;20391;-72
2022/02/17 01:00:47;;;;;;;0.85;0.10;;;13.00;99.90;;;;;;5053902;28;20071;-72
2022/02/17 01:03:13;;;;;;;1.55;0.00;;;12.90;99.90;;;;;;5052566;28;20392;-72
2022/02/17 01:05:38;;;;;;;0.10;0.10;;;12.90;99.90;;;;;;5053196;28;20041;-72
2022/02/17 01:08:04;;;;;;;0.28;0.10;;;12.80;99.90;;;;;;5053852;28;20025;-72
2022/02/17 01:10:30;;;;;;;0.05;0.05;;;12.90;99.90;;;;;;5053029;28;20041;-72
2022/02/17 01:12:55;;;;;;;0.10;0.10;;;12.80;99.90;;;;;;5053435;28;20123;-73
2022/02/17 01:15:21;;;;;;;0.08;0.05;;;12.80;99.90;;;;;;5053050;28;20048;-73
2022/02/17 01:17:47;;;;;;;0.20;0.10;;;12.60;99.90;;;;;;5053228;28;20445;-74
2022/02/17 01:20:13;;;;;;;1.27;0.10;;;12.40;99.90;;;;;;5052913;28;20072;-74
2022/02/17 01:22:40;;;;;;;0.22;0.10;;;12.20;99.90;;;;;;5053268;28;20059;-73
2022/02/17 01:25:05;;;;;;;0.57;0.00;;;12.10;99.90;;;;;;5053275;28;20041;-74
2022/02/17 01:27:31;;;;;;;0.10;0.10;;;12.00;99.90;;;;;;5052755;28;20033;-73
2022/02/17 01:29:57;;;;;;;1.20;0.10;;;12.00;99.90;;;;;;5053292;28;20029;-73
2022/02/17 01:32:23;;;;;;;2.10;0.10;;;11.90;99.90;;;;;;5052212;28;20508;-74
2022/02/17 01:34:49;;;;;;;0.10;0.10;;;11.90;99.90;;;;;;5052556;28;20029;-73
2022/02/17 01:37:14;;;;;;;0.00;0.00;;;11.90;99.90;;;;;;5052135;28;20067;-74
2022/02/17 01:39:40;;;;;;;0.00;0.00;;;11.90;99.90;;;;;;5053108;28;20112;-73
2022/02/17 01:42:10;;;;;;;1.30;0.10;;;11.90;99.90;;;;;;5053257;28;20033;-74
2022/02/17 01:44:36;;;;;;;0.40;0.10;;;11.80;99.90;;;;;;5053259;28;20033;-74
2022/02/17 01:47:09;;;;;;;0.00;0.00;;;11.90;99.90;;;;;;5053181;28;20033;-74
2022/02/17 01:49:35;;;;;;;0.52;0.10;;;11.80;99.90;;;;;;5052412;28;20048;-73
2022/02/17 01:52:02;;;;;;;0.52;0.00;;;11.70;99.90;;;;;;5052887;28;20116;-74
2022/02/17 01:54:28;;;;;;;0.00;0.00;;;11.60;99.90;;;;;;5051737;28;20024;-74
2022/02/17 01:56:55;;;;;;;0.10;0.10;;;11.70;99.90;;;;;;5051997;28;20049;-75
2022/02/17 01:59:20;;;;;;;0.73;0.10;;;11.60;99.90;;;;;;5052346;28;20048;-74
2022/02/17 02:01:46;;;;;;;0.52;0.10;;;11.50;99.90;;;;;;5052640;28;20451;-74
2022/02/17 02:04:12;;;;;;;0.00;0.00;;;11.40;99.90;;;;;;5052205;28;20069;-73
2022/02/17 02:06:37;;;;;;;0.35;0.10;;;11.30;99.90;;;;;;5051945;28;20500;-73
2022/02/17 02:09:04;;;;;;;0.17;0.10;;;11.10;99.90;;;;;;5052766;28;20025;-73
2022/02/17 02:11:30;;;;;;;0.10;0.10;;;11.10;99.90;;;;;;5051721;28;20580;-73
2022/02/17 02:13:56;;;;;;;0.00;0.00;;;11.00;99.90;;;;;;5052230;28;20044;-73
2022/02/17 02:16:22;;;;;;;0.00;0.00;;;10.90;99.90;;;;;;5051196;28;20040;-73
2022/02/17 02:18:48;;;;;;;0.00;0.00;;;10.90;99.90;;;;;;5052636;28;20405;-73
2022/02/17 02:21:13;;;;;;;0.25;0.10;;;10.90;99.90;;;;;;5051041;28;20046;-73
2022/02/17 02:23:39;;;;;;;0.10;0.05;;;10.90;99.90;;;;;;5052542;28;20064;-73
2022/02/17 02:26:06;;;;;;;0.10;0.10;;;10.90;99.90;;;;;;5051756;28;20474;-73
2022/02/17 02:28:33;;;;;;;1.42;0.10;;;10.90;99.90;;;;;;5051755;28;20127;-73
2022/02/17 02:30:59;;;;;;;1.00;0.10;;;10.90;99.90;;;;;;5052153;28;20036;-73
2022/02/17 02:33:26;;;;;;;0.10;0.10;;;11.00;99.90;;;;;;5051028;28;20032;-74
2022/02/17 02:35:53;;;;;;;0.35;0.00;;;10.90;99.90;;;;;;5051969;28;20047;-74
2022/02/17 02:38:22;;;;;;;0.17;0.00;;;10.90;99.90;;;;;;5051420;28;20060;-74
2022/02/17 02:40:48;;;;;;;1.52;0.00;;;10.90;99.90;;;;;;5051856;28;20036;-74
2022/02/17 02:43:14;;;;;;;0.00;0.00;;;10.90;99.90;;;;;;5051227;28;20048;-74
2022/02/17 02:45:39;;;;;;;0.20;0.10;;;10.90;99.90;;;;;;5051780;28;20066;-74
2022/02/17 02:48:07;;;;;;;1.33;0.20;;;10.90;99.90;;;;;;5052196;28;20079;-74
2022/02/17 02:50:34;;;;;;;0.05;0.00;;;10.90;99.90;;;;;;5051067;28;20389;-74
2022/02/17 02:53:00;;;;;;;1.38;0.10;;;10.90;99.90;;;;;;5051566;28;20036;-73
2022/02/17 02:55:26;;;;;;;0.28;0.10;;;10.90;99.90;;;;;;5050463;28;20074;-73
2022/02/17 02:57:52;;;;;;;0.00;0.00;;;10.90;99.90;;;;;;5051647;28;20470;-73
2022/02/17 03:00:18;;;;;;;0.15;0.00;;;10.90;99.90;;;;;;5050917;28;20044;-73
2022/02/17 03:02:44;;;;;;;0.17;0.10;;;10.90;99.90;;;;;;5051543;28;20025;-74
2022/02/17 03:05:12;;;;;;;1.80;0.03;;;10.90;99.90;;;;;;5051497;28;20451;-74
2022/02/17 03:07:38;;;;;;;1.17;0.00;;;10.90;99.90;;;;;;5050138;28;20385;-73
2022/02/17 03:10:06;;;;;;;0.30;0.00;;;11.00;99.90;;;;;;5051370;28;20025;-73
2022/02/17 03:12:33;;;;;;;0.00;0.00;;;11.00;99.90;;;;;;5049912;28;20063;-73
2022/02/17 03:14:59;;;;;;;1.42;0.15;;;11.10;99.90;;;;;;5051188;28;20025;-73
2022/02/17 03:17:25;;;;;;;0.40;0.10;;;11.10;99.90;;;;;;5050073;28;20025;-73
2022/02/17 03:19:50;;;;;;;0.20;0.10;;;11.10;99.90;;;;;;5051499;28;20029;-73
2022/02/17 03:22:16;;;;;;;0.20;0.00;;;11.10;99.90;;;;;;5048956;28;20025;-73
2022/02/17 03:24:42;;;;;;;0.75;0.10;;;11.10;99.90;;;;;;5051565;28;20029;-73
2022/02/17 03:27:08;;;;;;;0.10;0.00;;;11.10;99.90;;;;;;5050579;28;20033;-73
2022/02/17 03:29:33;;;;;;;0.00;0.00;;;11.10;99.90;;;;;;5051363;28;20031;-73
2022/02/17 03:31:59;;;;;;;0.17;0.10;;;11.20;99.90;;;;;;5051637;28;20033;-73
2022/02/17 03:34:25;;;;;;;0.00;0.00;;;11.20;99.90;;;;;;5050801;28;20067;-73
2022/02/17 03:36:51;;;;;;;0.20;0.10;;;11.20;99.90;;;;;;5050990;28;20079;-73
2022/02/17 03:39:16;;;;;;;2.22;0.08;;;11.10;99.90;;;;;;5051166;28;20028;-73
2022/02/17 03:41:42;;;;;;;0.10;0.00;;;11.10;99.90;;;;;;5051557;28;20028;-73
2022/02/17 03:44:08;;;;;;;0.57;0.10;;;11.10;99.90;;;;;;5051470;28;20344;-73
2022/02/17 03:46:34;;;;;;;0.68;0.10;;;11.10;99.90;;;;;;5050570;28;20037;-73
2022/02/17 03:48:59;;;;;;;0.50;0.00;;;11.10;99.90;;;;;;5051717;28;20442;-73
2022/02/17 03:51:25;;;;;;;1.23;0.00;;;11.20;99.90;;;;;;5050675;28;20045;-73
2022/02/17 03:53:50;;;;;;;0.00;0.00;;;11.20;99.90;;;;;;5051172;28;20092;-73
2022/02/17 03:56:16;;;;;;;0.35;0.03;;;11.20;99.90;;;;;;5050597;28;20027;-73
2022/02/17 04:01:26;;;;;;;0.00;0.00;;;11.20;99.90;;;;;;5050407;28;20040;-73
2022/02/17 04:03:52;;;;;;;0.22;0.00;;;11.30;99.90;;;;;;5050447;28;20111;-73
2022/02/17 04:06:18;;;;;;;0.15;0.00;;;11.30;99.90;;;;;;5049924;28;20215;-73
2022/02/17 04:08:43;;;;;;;0.05;0.00;;;11.30;99.90;;;;;;5051345;28;20032;-73
2022/02/17 04:11:09;;;;;;;0.47;0.10;;;11.30;99.90;;;;;;5050915;28;20029;-74
2022/02/17 04:13:35;;;;;;;2.65;0.57;;;11.20;99.90;;;;;;5050218;28;20035;-74
2022/02/17 04:16:00;;;;;;;0.25;0.10;;;11.30;99.90;;;;;;5051383;28;20021;-74
2022/02/17 04:18:26;;;;;;;0.40;0.05;;;11.30;99.90;;;;;;5050325;28;20033;-73
2022/02/17 04:20:52;;;;;;;0.30;0.20;;;11.20;99.90;;;;;;5051225;28;20065;-73
2022/02/17 04:23:18;;;;;;;0.32;0.05;;;11.20;99.90;;;;;;5050283;28;20025;-73
2022/02/17 04:25:43;;;;;;;0.13;0.10;;;11.20;99.90;;;;;;5051230;28;20108;-73
2022/02/17 04:28:09;;;;;;;0.20;0.10;;;11.20;99.90;;;;;;5050846;28;20098;-73
2022/02/17 04:30:35;;;;;;;0.00;0.00;;;11.30;99.90;;;;;;5050529;28;20033;-73
2022/02/17 04:33:02;;;;;;;0.47;0.10;;;11.30;99.90;;;;;;5050593;28;20036;-74
2022/02/17 04:35:28;;;;;;;0.70;0.15;;;11.30;99.90;;;;;;5050387;28;20029;-74
2022/02/17 04:37:54;;;;;;;0.28;0.10;;;11.30;99.90;;;;;;5050972;28;20424;-74
2022/02/17 04:40:19;;;;;;;0.00;0.00;;;11.30;99.90;;;;;;5049935;28;20040;-74
2022/02/17 04:42:45;;;;;;;0.25;0.10;;;11.20;99.90;;;;;;5050303;28;20021;-73
2022/02/17 04:45:11;;;;;;;0.55;0.20;;;11.20;99.90;;;;;;5052978;28;20036;-73
2022/02/17 04:47:36;;;;;;;0.00;0.00;;;11.10;99.90;;;;;;5054573;28;20136;-73
2022/02/17 04:50:03;;;;;;;2.00;0.10;;;11.00;99.90;;;;;;5055265;28;20037;-73
2022/02/17 04:52:29;;;;;;;0.30;0.10;;;11.00;99.90;;;;;;5053954;28;20056;-73
2022/02/17 04:54:54;;;;;;;0.40;0.10;;;11.00;99.90;;;;;;5054958;28;20056;-74
2022/02/17 04:57:20;;;;;;;2.72;0.30;;;11.00;99.90;;;;;;5054103;28;20081;-73
2022/02/17 04:59:46;;;;;;;0.45;0.10;;;11.10;99.90;;;;;;5054702;28;20060;-73
2022/02/17 05:02:13;;;;;;;0.00;0.00;;;11.10;99.90;;;;;;5054991;28;20068;-73
2022/02/17 05:04:38;;;;;;;0.03;0.00;;;11.00;99.90;;;;;;5054341;28;20431;-73
2022/02/17 05:07:04;;;;;;;1.50;0.10;;;11.10;99.90;;;;;;5054703;28;20053;-73
2022/02/17 05:09:30;;;;;;;1.75;0.10;;;11.10;99.90;;;;;;5052573;28;20060;-74
2022/02/17 05:11:55;;;;;;;0.40;0.10;;;11.10;99.90;;;;;;5053463;28;20036;-74
2022/02/17 05:14:21;;;;;;;1.58;0.13;;;11.00;99.90;;;;;;5052417;28;20033;-74
2022/02/17 05:16:46;;;;;;;0.00;0.00;;;11.10;99.90;;;;;;5053054;28;20033;-74
2022/02/17 05:19:12;;;;;;;0.25;0.10;;;11.10;99.90;;;;;;5050640;28;20025;-74
2022/02/17 05:21:38;;;;;;;0.05;0.05;;;11.00;99.90;;;;;;5052724;28;20028;-73
2022/02/17 05:24:04;;;;;;;0.20;0.10;;;11.00;99.90;;;;;;5053276;28;20053;-74
2022/02/17 05:26:29;;;;;;;1.13;0.22;;;10.90;99.90;;;;;;5052666;28;20066;-74
2022/02/17 05:28:55;;;;;;;1.88;0.50;;;10.90;99.90;;;;;;5052650;28;20468;-74
2022/02/17 05:31:21;;;;;;;0.00;0.00;;;10.90;99.90;;;;;;5052554;28;20170;-74
2022/02/17 05:33:46;;;;;;;1.50;0.10;;;11.00;99.90;;;;;;5052699;28;20378;-74
2022/02/17 05:36:12;;;;;;;0.20;0.00;;;11.10;99.90;;;;;;5053378;28;20081;-74
2022/02/17 05:38:38;;;;;;;0.10;0.10;;;11.10;99.90;;;;;;5052117;28;20029;-74
2022/02/17 05:41:03;;;;;;;0.55;0.10;;;11.10;99.90;;;;;;5053030;28;20029;-74
2022/02/17 05:43:29;;;;;;;0.20;0.15;;;11.20;99.90;;;;;;5051450;28;20405;-73
2022/02/17 05:45:54;;;;;;;0.57;0.10;;;11.40;99.90;;;;;;5053038;28;20028;-73
2022/02/17 05:48:20;;;;;;;0.20;0.20;;;11.30;99.90;;;;;;5051959;28;20455;-73
2022/02/17 05:50:46;;;;;;;1.45;0.10;;;11.20;99.90;;;;;;5052496;28;20120;-75
2022/02/17 05:53:11;;;;;;;0.73;0.10;;;11.30;99.90;;;;;;5052276;28;20033;-74
2022/02/17 05:55:37;;;;;;;0.68;0.10;;;11.40;99.90;;;;;;5051138;28;20025;-74
2022/02/17 05:58:03;;;;;;;0.90;0.22;;;11.40;99.90;;;;;;5051707;28;20537;-73
2022/02/17 06:00:28;;;;;;;1.63;0.22;;;11.40;99.90;;;;;;5051646;28;20037;-73
2022/02/17 06:02:54;;;;;;;11.95;0.85;;;11.40;99.90;;;;;;5052187;28;20116;-74
2022/02/17 06:05:20;;;;;;;7.40;0.60;;;11.40;99.90;;;;;;5051666;28;20032;-78
2022/02/17 06:07:46;;;;;;;1.55;0.40;;;11.50;99.90;;;;;;5052457;28;20029;-74
2022/02/17 06:10:12;;;;;;;6.38;1.00;;;11.60;99.90;;;;;;5050965;28;20028;-74
2022/02/17 06:12:43;;;;;;;2.38;0.45;;;11.60;99.90;;;;;;5052157;28;20171;-76
2022/02/17 06:15:16;;;;;;;2.40;0.70;;;11.70;99.90;;;;;;5052783;28;20066;-74
2022/02/17 06:17:42;;;;;;;3.08;0.52;;;11.70;99.90;;;;;;5053653;28;20033;-75
2022/02/17 06:20:09;;;;;;;2.33;0.50;;;11.70;99.90;;;;;;5053207;28;20044;-73
2022/02/17 06:22:45;;;;;;;3.92;0.90;;;11.70;99.90;;;;;;5052514;28;20037;-73
2022/02/17 06:25:11;;;;;;;4.07;0.70;;;11.70;99.90;;;;;;5053171;28;20102;-78
2022/02/17 06:27:37;;;;;;;3.90;1.10;;;11.60;99.90;;;;;;5052752;28;20458;-72
2022/02/17 06:30:04;;;;;;;5.63;0.80;;;11.60;99.90;;;;;;5052543;28;20036;-76
2022/02/17 06:32:29;;;;;;;2.72;0.77;;;11.50;99.90;;;;;;5051791;28;20040;-78
2022/02/17 06:34:55;;;;;;;5.78;0.70;;;11.40;99.90;;;;;;5052677;28;20528;-76
2022/02/17 06:37:20;;;;;;;6.53;0.88;;;11.30;99.90;;;;;;5052527;28;20025;-75
2022/02/17 06:39:46;;;;;;;6.78;0.82;;;11.30;99.90;;;;;;5052808;28;20021;-78
2022/02/17 06:42:11;;;;;;;10.15;1.58;;;11.30;99.90;;;;;;5052597;28;20110;-75
2022/02/17 06:44:37;;;;;;;4.47;0.95;;;11.20;99.90;;;;;;5052005;28;20025;-77
2022/02/17 06:47:03;;;;;;;5.13;0.82;;;11.20;99.90;;;;;;5052926;28;20021;-76
2022/02/17 06:49:29;;;;;;;8.40;1.63;;;11.10;99.90;;;;;;5052036;28;20048;-76
2022/02/17 06:51:55;;;;;;;6.05;1.00;;;11.10;99.90;;;;;;5057483;28;20509;-77
2022/02/17 06:54:21;;;;;;;6.28;1.23;;;11.10;99.90;;;;;;5050939;28;20076;-72
2022/02/17 06:56:47;;;;;;;6.55;1.08;;;11.10;99.90;;;;;;5051681;28;20045;-72
2022/02/17 06:59:12;;;;;;;5.35;1.17;;;11.10;99.90;;;;;;5052540;28;20470;-73
2022/02/17 07:01:38;;;;;;;11.02;1.65;;;11.10;99.90;;;;;;5050990;28;20029;-74
2022/02/17 07:04:03;;;;;;;7.03;1.52;;;11.10;99.90;;;;;;5052733;28;20025;-74
2022/02/17 07:06:29;;;;;;;6.47;1.70;;;11.10;99.90;;;;;;5052116;28;20051;-74
2022/02/17 07:08:55;;;;;;;8.35;1.30;;;11.10;99.90;;;;;;5051820;28;20055;-77
2022/02/17 07:11:20;;;;;;;8.50;1.90;;;11.10;99.90;;;;;;5050632;28;20063;-75
2022/02/17 07:13:48;;;;;;;12.88;2.72;;;11.10;99.90;;;;;;5052137;28;20028;-76
2022/02/17 07:16:14;;;;;;;9.93;1.60;;;11.10;99.90;;;;;;5050194;28;20106;-69
2022/02/17 07:18:44;;;;;;;16.60;2.17;;;11.10;99.90;;;;;;5050691;28;20108;-74
2022/02/17 07:21:10;;;;;;;16.17;1.80;;;11.20;99.90;;;;;;5049522;28;20044;-71
2022/02/17 07:23:36;;;;;;;15.07;2.45;;;11.20;99.90;;;;;;5044990;28;20865;-72
2022/02/17 07:26:02;;;;;;;8.63;1.67;;;11.20;99.90;;;;;;5051374;28;20021;-68
2022/02/17 07:28:28;;;;;;;10.90;1.70;;;11.00;99.90;;;;;;5050554;28;20083;-75
2022/02/17 07:30:55;;;;;;;12.20;1.80;;;11.00;99.90;;;;;;5051400;28;20037;-80
2022/02/17 07:33:21;;;;;;;9.32;2.00;;;11.00;99.90;;;;;;5050750;28;20143;-75
2022/02/17 07:35:47;;;;;;;11.18;2.22;;;11.00;99.90;;;;;;5051039;28;20037;-73
2022/02/17 07:38:13;;;;;;;6.22;1.63;;;10.90;99.90;;;;;;5051785;28;20032;-79
2022/02/17 07:40:40;;;;;;;6.53;1.85;;;10.90;99.90;;;;;;5050555;28;20032;-78
2022/02/17 07:43:07;;;;;;;6.40;1.48;;;10.90;99.90;;;;;;5051235;28;20040;-78
2022/02/17 07:45:32;;;;;;;6.90;1.35;;;10.80;99.90;;;;;;5050067;28;20025;-73
2022/02/17 07:47:59;;;;;;;7.38;2.00;;;10.80;99.90;;;;;;5051170;28;20112;-74
2022/02/17 07:50:25;;;;;;;9.00;2.00;;;10.90;99.90;;;;;;5050140;28;20110;-76
2022/02/17 07:52:53;;;;;;;12.15;2.22;;;10.90;99.90;;;;;;5050985;28;20438;-73
2022/02/17 07:55:19;;;;;;;12.13;1.85;;;11.00;99.90;;;;;;5050537;28;20531;-74
2022/02/17 07:57:45;;;;;;;9.35;2.83;;;11.00;99.90;;;;;;5045828;28;20128;-75
2022/02/17 08:00:14;;;;;;;9.48;1.90;;;11.10;99.90;;;;;;5048719;28;20104;-75
2022/02/17 08:02:40;;;;;;;9.68;1.50;;;11.10;99.90;;;;;;5048450;28;20044;-75
2022/02/17 08:05:07;;;;;;;10.65;1.73;;;11.10;99.90;;;;;;5052218;28;20028;-75
2022/02/17 08:07:33;;;;;;;7.63;1.50;;;11.30;99.90;;;;;;5052793;28;20029;-75
2022/02/17 08:10:00;;;;;;;7.97;1.52;;;11.30;99.90;;;;;;5054733;28;20366;-75
2022/02/17 08:12:25;;;;;;;7.88;1.45;;;11.40;99.90;;;;;;5056150;28;20029;-75
2022/02/17 08:14:51;;;;;;;6.43;1.67;;;11.50;99.90;;;;;;5050555;28;20091;-76
2022/02/17 08:17:17;;;;;;;11.25;1.67;;;11.70;99.90;;;;;;5054403;28;20028;-75
2022/02/17 08:19:42;;;;;;;7.65;1.65;;;11.70;99.90;;;;;;5048865;28;20029;-76
2022/02/17 08:22:08;;;;;;;8.23;1.67;;;11.80;99.90;;;;;;5054719;28;20033;-74
2022/02/17 08:24:33;;;;;;;9.85;1.80;;;11.90;99.90;;;;;;5042142;28;20021;-74
2022/02/17 08:26:59;;;;;;;11.90;2.22;;;11.90;99.90;;;;;;5043177;28;20032;-75
2022/02/17 08:29:26;;;;;;;8.32;1.83;;;11.90;99.90;;;;;;5054693;28;20048;-76
2022/02/17 08:31:52;;;;;;;9.45;2.03;;;12.00;99.90;;;;;;5054446;28;20182;-75
2022/02/17 08:34:18;;;;;;;11.88;2.55;;;12.00;99.90;;;;;;5054076;28;20033;-76
2022/02/17 08:36:44;;;;;;;19.27;2.60;;;12.10;99.90;;;;;;5053045;28;20036;-75
2022/02/17 08:39:10;;;;;;;11.93;1.63;;;12.20;99.90;;;;;;5054471;28;20148;-76
2022/02/17 08:41:37;;;;;;;19.23;2.65;;;12.20;99.90;;;;;;5043341;28;20609;-75
2022/02/17 08:44:04;;;;;;;9.05;1.95;;;12.10;99.80;;;;;;5042276;28;20370;-75
2022/02/17 08:46:30;;;;;;;12.15;2.53;;;12.10;99.80;;;;;;5036338;28;20018;-76
2022/02/17 08:48:56;;;;;;;10.93;2.10;;;12.10;98.90;;;;;;5053840;28;20025;-76
2022/02/17 08:51:24;;;;;;;7.65;2.60;;;12.20;98.50;;;;;;5054683;28;20119;-75
2022/02/17 08:53:50;;;;;;;12.38;2.30;;;12.10;97.70;;;;;;5054340;28;20025;-76
2022/02/17 08:56:15;;;;;;;11.85;2.28;;;12.10;97.80;;;;;;5052848;28;20473;-75
2022/02/17 08:58:41;;;;;;;13.00;2.20;;;12.10;98.30;;;;;;5050851;28;20855;-76
2022/02/17 09:01:06;;;;;;;13.73;2.35;;;12.10;98.20;;;;;;5053546;28;20067;-76
2022/02/17 09:03:32;;;;;;;15.02;2.03;;;12.10;96.70;;;;;;5051329;28;20028;-76
2022/02/17 09:05:58;;;;;;;18.75;3.10;;;12.10;97.90;;;;;;5052755;28;20061;-76
2022/02/17 09:08:23;;;;;;;10.73;2.35;;;12.30;97.60;;;;;;5052763;28;20117;-75
2022/02/17 09:10:49;;;;;;;15.77;2.45;;;12.40;97.50;;;;;;5053296;28;20104;-76
2022/02/17 09:13:15;;;;;;;10.30;2.65;;;12.50;96.40;;;;;;5051948;28;20482;-76
2022/02/17 09:15:41;;;;;;;10.52;2.85;;;12.60;95.10;;;;;;5048747;28;20033;-76
2022/02/17 09:18:07;;;;;;;13.02;2.88;;;12.60;95.00;;;;;;5045577;28;20029;-76
2022/02/17 09:20:35;;;;;;;12.32;2.40;;;12.60;94.30;;;;;;5050958;28;20043;-76
2022/02/17 09:23:02;;;;;;;14.93;2.78;;;12.50;92.60;;;;;;5052934;28;20516;-77
2022/02/17 09:25:27;;;;;;;12.65;3.08;;;12.60;92.40;;;;;;5037974;28;20029;-76
2022/02/17 09:27:53;;;;;;;14.85;2.50;;;12.70;90.00;;;;;;5036997;28;20052;-76
2022/02/17 09:30:19;;;;;;;15.52;2.78;;;12.80;88.10;;;;;;5052325;28;20033;-76
2022/02/17 09:32:45;;;;;;;14.38;2.40;;;12.90;88.40;;;;;;5052238;28;20118;-76
2022/02/17 09:35:11;;;;;;;14.65;2.90;;;13.10;84.40;;;;;;5052403;28;20029;-76
2022/02/17 09:37:37;;;;;;;13.25;2.63;;;13.20;80.20;;;;;;5051206;28;20036;-76
2022/02/17 09:40:04;;;;;;;16.70;3.15;;;13.10;77.30;;;;;;5067583;28;20516;-76
2022/02/17 09:42:36;;;;;;;12.07;2.97;;;13.10;77.30;;;;;;5072885;28;20040;-76
2022/02/17 09:45:08;;;;;;;19.08;3.00;;;13.20;79.20;;;;;;5050622;28;20021;-75
2022/02/17 09:47:35;;;;;;;23.52;4.25;;;13.20;74.20;;;;;;5051193;28;20036;-75
2022/02/17 09:50:01;;;;;;;13.27;2.75;;;13.30;74.60;;;;;;5053237;28;20074;-76
2022/02/17 09:52:27;;;;;;;15.82;3.15;;;13.30;73.20;;;;;;5051219;28;20389;-75
2022/02/17 09:54:53;;;;;;;27.13;3.53;;;13.10;74.20;;;;;;5052108;28;20037;-75
2022/02/17 09:57:22;;;;;;;17.88;3.42;;;12.90;76.20;;;;;;5052798;28;20128;-75
2022/02/17 09:59:48;;;;;;;21.00;3.47;;;12.60;77.10;;;;;;5051817;28;20678;-75
2022/02/17 10:02:22;;;;;;;27.92;4.15;;;12.60;78.50;;;;;;5052592;28;20087;-75
2022/02/17 10:04:56;;;;;;;29.80;3.72;;;12.50;80.30;;;;;;5051957;28;20817;-75
2022/02/17 10:07:35;;;;;;;13.65;3.50;;;12.40;83.30;;;;;;5051798;28;20024;-74
2022/02/17 10:10:06;;;;;;;20.15;4.60;;;12.30;86.20;;;;;;5050689;28;20120;-74
2022/02/17 10:13:01;;;;;;;20.48;4.25;;;12.20;88.50;;;;;;5033057;28;20033;-75
2022/02/17 10:15:32;;;;;;;16.75;3.15;;;12.30;88.70;;;;;;5046057;28;20108;-76
2022/02/17 10:18:14;;;;;;;15.85;2.97;;;12.30;82.50;;;;;;5051575;28;20033;-76
2022/02/17 10:21:06;;;;;;;11.65;2.67;;;12.30;80.50;;;;;;5051433;28;20086;-75
2022/02/17 10:23:34;;;;;;;16.27;3.28;;;12.20;82.50;;;;;;5051821;28;20028;-74
2022/02/17 10:26:19;;;;;;;14.93;3.10;;;12.10;88.60;;;;;;5052891;28;20025;-75
2022/02/17 10:29:01;;;;;;;19.30;2.95;;;11.90;90.90;;;;;;5033049;28;20075;-77
2022/02/17 10:31:35;;;;;;;21.67;3.67;;;11.60;97.40;;;;;;5043475;28;20037;-75
2022/02/17 10:34:02;;;;;;;17.45;3.38;;;11.20;99.90;;;;;;5052402;28;20025;-75
2022/02/17 10:36:44;;;;;;;16.58;2.97;;;11.00;99.90;;;;;;5051596;28;20426;-74
2022/02/17 10:39:26;;;;;;;24.27;3.47;;;10.90;99.90;;;;;;5051973;28;20033;-75
2022/02/17 10:42:02;;;;;;;12.45;2.72;;;10.90;99.90;;;;;;5051855;28;20029;-75
2022/02/17 10:44:34;;;;;;;21.33;3.25;;;11.00;99.90;;;;;;5051925;28;20112;-74
2022/02/17 10:47:19;;;;;;;16.23;2.60;;;11.10;99.90;;;;;;5051322;28;20021;-75
2022/02/17 10:49:50;;;;;;;22.02;3.15;;;11.20;99.90;;;;;;5051097;28;20042;-79
2022/02/17 10:52:31;;;;;;;16.55;2.65;;;11.30;99.90;;;;;;5052068;28;20467;-75
2022/02/17 10:55:17;;;;;;;11.13;3.13;;;11.50;99.30;;;;;;5051503;28;20118;-76
2022/02/17 10:57:44;;;;;;;10.75;2.67;;;11.60;99.00;;;;;;5031212;28;20513;-75
2022/02/17 11:00:29;;;;;;;13.52;2.22;;;11.80;98.70;;;;;;5045673;28;20025;-74
2022/02/17 11:02:56;;;;;;;13.35;2.47;;;12.00;96.30;;;;;;5051578;28;20524;-77
2022/02/17 11:05:21;;;;;;;19.77;2.85;;;12.00;94.90;;;;;;5051828;28;20028;-77
2022/02/17 11:07:47;;;;;;;13.05;3.08;;;12.10;94.80;;;;;;5049865;28;20090;-79
2022/02/17 11:10:13;;;;;;;13.95;3.17;;;12.10;93.60;;;;;;5066913;28;20488;-79
2022/02/17 11:12:41;;;;;;;20.73;3.85;;;12.20;92.30;;;;;;5050198;28;20455;-77
2022/02/17 11:15:08;;;;;;;14.23;3.10;;;12.20;91.60;;;;;;5050870;28;20103;-78
2022/02/17 11:17:39;;;;;;;11.27;2.47;;;12.30;91.00;;;;;;5049739;28;20048;-78
2022/02/17 11:20:17;;;;;;;12.32;2.80;;;12.40;89.60;;;;;;5050883;28;20033;-77
2022/02/17 11:22:44;;;;;;;16.48;2.85;;;12.40;90.00;;;;;;5049608;28;20029;-77
2022/02/17 11:25:11;;;;;;;14.30;2.45;;;12.50;84.00;;;;;;5050510;28;20025;-77
2022/02/17 11:27:56;;;;;;;12.05;2.42;;;12.60;82.90;;;;;;5050744;28;20029;-77
2022/02/17 11:30:26;;;;;;;15.93;2.97;;;12.80;78.80;;;;;;5051490;28;20032;-76
2022/02/17 11:33:24;;;;;;;12.80;2.80;;;12.80;82.70;;;;;;5046867;28;20141;-73
2022/02/17 11:35:53;;;;;;;14.48;2.45;;;12.90;76.30;;;;;;5050002;28;20129;-74
2022/02/17 11:38:36;;;;;;;14.02;2.50;;;12.90;72.40;;;;;;5051541;28;20493;-76
2022/02/17 11:41:11;;;;;;;18.40;3.78;;;12.60;70.20;;;;;;5049331;28;20036;-75
2022/02/17 11:43:40;;;;;;;10.45;2.50;;;12.30;71.20;;;;;;5051529;28;20029;-75
2022/02/17 11:46:05;;;;;;;13.45;2.85;;;12.20;73.40;;;;;;5051914;28;20097;-75
2022/02/17 11:48:32;;;;;;;19.33;3.53;;;12.20;74.50;;;;;;5050525;28;20033;-74
2022/02/17 11:51:19;;;;;;;16.48;3.55;;;12.30;74.20;;;;;;5051169;28;20440;-75
2022/02/17 11:54:16;;;;;;;14.75;2.75;;;12.30;73.40;;;;;;5050187;28;20110;-75
2022/02/17 11:56:53;;;;;;;18.50;3.50;;;12.30;73.70;;;;;;5052678;28;20049;-75
2022/02/17 11:59:29;;;;;;;14.23;3.20;;;12.30;73.50;;;;;;5053775;28;20021;-76
2022/02/17 12:01:57;;;;;;;21.67;3.28;;;12.30;74.30;;;;;;5054927;28;20045;-75
2022/02/17 12:04:28;;;;;;;18.23;3.35;;;12.30;74.80;;;;;;5055139;28;20055;-75
2022/02/17 12:07:04;;;;;;;15.45;3.70;;;12.40;73.50;;;;;;5054726;28;20032;-76
2022/02/17 12:09:32;;;;;;;19.73;3.50;;;12.40;72.40;;;;;;5063506;28;20035;-71
2022/02/17 12:12:13;;;;;;;14.73;3.35;;;12.40;72.70;;;;;;5063488;28;20406;-74
2022/02/17 12:14:49;;;;;;;15.90;3.25;;;12.40;73.50;;;;;;5053208;28;20039;-78
2022/02/17 12:17:15;;;;;;;17.02;4.10;;;12.40;75.30;;;;;;5054699;28;20041;-79
2022/02/17 12:19:41;;;;;;;20.60;4.32;;;12.50;74.70;;;;;;5053586;28;20029;-77
2022/02/17 12:22:09;;;;;;;20.50;3.67;;;12.60;75.50;;;;;;5056332;28;20039;-76
2022/02/17 12:24:37;;;;;;;16.95;4.53;;;12.60;75.50;;;;;;5055005;28;20072;-84
2022/02/17 12:27:04;;;;;;;16.92;3.85;;;12.60;76.70;;;;;;5056846;28;20036;-73
2022/02/17 12:29:33;;;;;;;16.55;4.68;;;12.60;77.10;;;;;;5057423;28;20112;-75
2022/02/17 12:32:01;;;;;;;14.90;3.50;;;12.60;76.30;;;;;;5055142;28;20608;-74
2022/02/17 12:34:28;;;;;;;14.05;2.83;;;12.80;75.20;;;;;;5061100;28;20329;-76
2022/02/17 12:36:54;;;;;;;14.00;3.95;;;12.90;72.30;;;;;;5054001;28;20039;-71
2022/02/17 12:39:25;;;;;;;14.32;3.42;;;12.90;72.00;;;;;;5062209;28;20138;-74
2022/02/17 12:42:05;;;;;;;12.13;2.83;;;13.00;71.20;;;;;;5058373;28;20126;-72
2022/02/17 12:44:37;;;;;;;13.10;3.00;;;13.30;68.90;;;;;;5056777;28;20536;-75
2022/02/17 12:47:04;;;;;;;17.85;4.28;;;13.70;66.50;;;;;;5054773;28;20485;-76
2022/02/17 12:49:31;;;;;;;18.00;3.35;;;;;;;;;;5054330;28;20044;-76